sensor_id;sensor_type;location;lat;lon;timestamp;pressure;altitude;pressure_sealevel;temperature;humidity
54666;BME280;40566;50.006;36.180;2023-02-08T00:02:44;102124.88;;;-8.38;60.96
54666;BME280;40566;50.006;36.180;2023-02-08T00:07:45;102125.16;;;-8.35;60.91
54666;BME280;40566;50.006;36.180;2023-02-08T00:12:45;102128.66;;;-8.33;60.83
54666;BME280;40566;50.006;36.180;2023-02-08T00:17:46;102117.47;;;-8.37;60.55
54666;BME280;40566;50.006;36.180;2023-02-08T00:22:46;102123.50;;;-8.34;60.87
54666;BME280;40566;50.006;36.180;2023-02-08T00:27:47;102118.50;;;-8.34;60.69
54666;BME280;40566;50.006;36.180;2023-02-08T00:32:48;102133.03;;;-8.41;60.95
54666;BME280;40566;50.006;36.180;2023-02-08T00:37:48;102122.97;;;-8.41;60.55
54666;BME280;40566;50.006;36.180;2023-02-08T00:42:49;102141.16;;;-8.43;60.60
54666;BME280;40566;50.006;36.180;2023-02-08T00:47:50;102143.78;;;-8.52;61.03
54666;BME280;40566;50.006;36.180;2023-02-08T00:52:50;102145.88;;;-8.56;60.91
54666;BME280;40566;50.006;36.180;2023-02-08T00:57:51;102129.94;;;-8.57;61.02
54666;BME280;40566;50.006;36.180;2023-02-08T01:02:51;102139.97;;;-8.57;60.70
54666;BME280;40566;50.006;36.180;2023-02-08T01:07:52;102141.75;;;-8.56;60.74
54666;BME280;40566;50.006;36.180;2023-02-08T01:12:52;102144.25;;;-8.56;60.50
54666;BME280;40566;50.006;36.180;2023-02-08T01:17:54;102137.41;;;-8.67;60.52
54666;BME280;40566;50.006;36.180;2023-02-08T01:22:55;102141.41;;;-8.69;60.65
54666;BME280;40566;50.006;36.180;2023-02-08T01:27:56;102132.94;;;-8.80;60.76
54666;BME280;40566;50.006;36.180;2023-02-08T01:32:56;102144.47;;;-8.82;60.85
54666;BME280;40566;50.006;36.180;2023-02-08T01:37:57;102141.53;;;-8.87;60.89
54666;BME280;40566;50.006;36.180;2023-02-08T01:42:57;102159.78;;;-8.98;61.04
54666;BME280;40566;50.006;36.180;2023-02-08T01:48:27;102163.47;;;-9.03;61.21
54666;BME280;40566;50.006;36.180;2023-02-08T01:53:29;102173.28;;;-9.15;61.24
54666;BME280;40566;50.006;36.180;2023-02-08T01:58:35;102174.47;;;-9.20;61.12
54666;BME280;40566;50.006;36.180;2023-02-08T02:03:38;102179.00;;;-9.07;60.59
54666;BME280;40566;50.006;36.180;2023-02-08T02:08:43;102170.38;;;-9.20;60.83
54666;BME280;40566;50.006;36.180;2023-02-08T02:13:47;102179.72;;;-9.08;60.37
54666;BME280;40566;50.006;36.180;2023-02-08T02:18:49;102189.94;;;-9.15;60.49
54666;BME280;40566;50.006;36.180;2023-02-08T02:40:35;102200.06;;;-9.33;60.93
54666;BME280;40566;50.006;36.180;2023-02-08T02:46:12;102207.41;;;-9.26;60.80
54666;BME280;40566;50.006;36.180;2023-02-08T02:56:25;102200.53;;;-9.46;61.21
54666;BME280;40566;50.006;36.180;2023-02-08T03:01:26;102204.09;;;-9.44;60.92
54666;BME280;40566;50.006;36.180;2023-02-08T03:17:33;102237.88;;;-9.58;60.71
54666;BME280;40566;50.006;36.180;2023-02-08T03:22:46;102232.63;;;-9.69;61.08
54666;BME280;40566;50.006;36.180;2023-02-08T03:28:04;102233.59;;;-9.59;60.56
54666;BME280;40566;50.006;36.180;2023-02-08T03:33:17;102238.31;;;-9.62;60.59
54666;BME280;40566;50.006;36.180;2023-02-08T03:38:36;102234.09;;;-9.80;60.85
54666;BME280;40566;50.006;36.180;2023-02-08T03:43:45;102252.38;;;-9.90;61.15
54666;BME280;40566;50.006;36.180;2023-02-08T03:48:51;102255.63;;;-9.91;61.13
54666;BME280;40566;50.006;36.180;2023-02-08T03:53:56;102262.09;;;-9.84;61.09
54666;BME280;40566;50.006;36.180;2023-02-08T03:59:01;102249.56;;;-9.84;60.64
54666;BME280;40566;50.006;36.180;2023-02-08T04:04:03;102270.94;;;-9.97;61.03
54666;BME280;40566;50.006;36.180;2023-02-08T04:09:04;102270.81;;;-10.07;61.34
54666;BME280;40566;50.006;36.180;2023-02-08T04:14:05;102280.22;;;-10.04;61.17
54666;BME280;40566;50.006;36.180;2023-02-08T04:19:05;102280.81;;;-10.07;61.02
54666;BME280;40566;50.006;36.180;2023-02-08T04:24:06;102281.25;;;-10.11;61.05
54666;BME280;40566;50.006;36.180;2023-02-08T04:29:07;102283.78;;;-10.11;61.17
54666;BME280;40566;50.006;36.180;2023-02-08T04:34:07;102292.41;;;-10.25;61.02
54666;BME280;40566;50.006;36.180;2023-02-08T04:39:08;102301.41;;;-10.18;60.80
54666;BME280;40566;50.006;36.180;2023-02-08T04:44:08;102311.56;;;-10.08;60.69
54666;BME280;40566;50.006;36.180;2023-02-08T04:49:09;102322.03;;;-10.12;61.07
54666;BME280;40566;50.006;36.180;2023-02-08T04:54:10;102320.13;;;-10.06;60.65
54666;BME280;40566;50.006;36.180;2023-02-08T04:59:10;102329.69;;;-10.10;60.66
54666;BME280;40566;50.006;36.180;2023-02-08T05:04:11;102330.25;;;-10.13;60.77
54666;BME280;40566;50.006;36.180;2023-02-08T05:09:12;102339.41;;;-10.05;60.39
54666;BME280;40566;50.006;36.180;2023-02-08T05:14:12;102335.13;;;-10.06;60.78
54666;BME280;40566;50.006;36.180;2023-02-08T05:19:13;102342.91;;;-10.11;60.89
54666;BME280;40566;50.006;36.180;2023-02-08T05:24:13;102343.84;;;-10.11;61.01
54666;BME280;40566;50.006;36.180;2023-02-08T05:29:14;102353.69;;;-10.04;60.93
54666;BME280;40566;50.006;36.180;2023-02-08T05:34:15;102362.06;;;-10.12;61.27
54666;BME280;40566;50.006;36.180;2023-02-08T05:39:15;102356.03;;;-10.05;61.16
54666;BME280;40566;50.006;36.180;2023-02-08T05:44:16;102351.19;;;-9.95;60.92
54666;BME280;40566;50.006;36.180;2023-02-08T05:49:16;102349.13;;;-9.90;60.87
54666;BME280;40566;50.006;36.180;2023-02-08T05:54:17;102358.84;;;-9.85;61.10
54666;BME280;40566;50.006;36.180;2023-02-08T05:59:17;102348.09;;;-9.75;60.75
54666;BME280;40566;50.006;36.180;2023-02-08T06:04:18;102354.88;;;-9.74;60.84
54666;BME280;40566;50.006;36.180;2023-02-08T06:09:18;102355.59;;;-9.66;61.20
54666;BME280;40566;50.006;36.180;2023-02-08T06:14:19;102369.47;;;-9.61;61.25
54666;BME280;40566;50.006;36.180;2023-02-08T06:19:20;102372.84;;;-9.61;61.03
54666;BME280;40566;50.006;36.180;2023-02-08T06:24:20;102365.00;;;-9.46;61.36
54666;BME280;40566;50.006;36.180;2023-02-08T06:29:21;102383.88;;;-9.41;61.08
54666;BME280;40566;50.006;36.180;2023-02-08T06:34:21;102389.47;;;-9.35;61.14
54666;BME280;40566;50.006;36.180;2023-02-08T06:39:22;102395.78;;;-9.21;61.41
54666;BME280;40566;50.006;36.180;2023-02-08T06:44:24;102392.06;;;-9.07;61.18
54666;BME280;40566;50.006;36.180;2023-02-08T06:49:24;102398.22;;;-8.95;61.31
54666;BME280;40566;50.006;36.180;2023-02-08T06:54:25;102399.81;;;-8.78;61.15
54666;BME280;40566;50.006;36.180;2023-02-08T06:59:25;102386.03;;;-8.64;61.07
54666;BME280;40566;50.006;36.180;2023-02-08T07:04:26;102381.72;;;-8.38;61.14
54666;BME280;40566;50.006;36.180;2023-02-08T07:09:26;102386.31;;;-8.14;61.06
54666;BME280;40566;50.006;36.180;2023-02-08T07:14:27;102375.47;;;-8.05;61.21
54666;BME280;40566;50.006;36.180;2023-02-08T07:19:28;102394.16;;;-7.92;61.14
54666;BME280;40566;50.006;36.180;2023-02-08T07:24:29;102383.59;;;-7.80;61.37
54666;BME280;40566;50.006;36.180;2023-02-08T07:29:32;102394.38;;;-7.62;61.34
54666;BME280;40566;50.006;36.180;2023-02-08T07:34:35;102410.91;;;-7.45;61.54
54666;BME280;40566;50.006;36.180;2023-02-08T07:39:36;102402.84;;;-7.32;61.69
54666;BME280;40566;50.006;36.180;2023-02-08T07:44:37;102412.25;;;-7.10;61.40
54666;BME280;40566;50.006;36.180;2023-02-08T07:49:38;102420.56;;;-7.01;61.18
54666;BME280;40566;50.006;36.180;2023-02-08T07:54:38;102414.69;;;-6.91;61.36
54666;BME280;40566;50.006;36.180;2023-02-08T07:59:40;102411.47;;;-6.80;61.45
54666;BME280;40566;50.006;36.180;2023-02-08T08:04:41;102412.63;;;-6.76;61.39
54666;BME280;40566;50.006;36.180;2023-02-08T08:09:42;102415.19;;;-6.56;61.28
54666;BME280;40566;50.006;36.180;2023-02-08T08:14:42;102424.53;;;-6.34;61.26
54666;BME280;40566;50.006;36.180;2023-02-08T08:19:43;102414.75;;;-6.21;61.26
54666;BME280;40566;50.006;36.180;2023-02-08T08:24:44;102428.47;;;-5.97;60.99
54666;BME280;40566;50.006;36.180;2023-02-08T08:29:44;102428.06;;;-5.81;61.14
54666;BME280;40566;50.006;36.180;2023-02-08T08:34:45;102426.28;;;-5.62;61.05
54666;BME280;40566;50.006;36.180;2023-02-08T08:39:45;102435.50;;;-5.20;60.89
54666;BME280;40566;50.006;36.180;2023-02-08T08:44:46;102437.34;;;-2.92;55.73
54666;BME280;40566;50.006;36.180;2023-02-08T08:49:47;102433.38;;;1.39;46.15
54666;BME280;40566;50.006;36.180;2023-02-08T08:54:47;102412.38;;;3.76;41.99
54666;BME280;40566;50.006;36.180;2023-02-08T08:59:48;102419.75;;;5.88;39.21
54666;BME280;40566;50.006;36.180;2023-02-08T09:04:48;102415.84;;;9.48;34.58
54666;BME280;40566;50.006;36.180;2023-02-08T09:09:49;102417.13;;;12.17;31.18
54666;BME280;40566;50.006;36.180;2023-02-08T09:14:50;102422.13;;;11.96;32.32
54666;BME280;40566;50.006;36.180;2023-02-08T09:19:50;102412.59;;;13.16;31.15
54666;BME280;40566;50.006;36.180;2023-02-08T09:24:52;102408.53;;;13.96;30.23
54666;BME280;40566;50.006;36.180;2023-02-08T09:29:53;102404.19;;;14.12;30.37
54666;BME280;40566;50.006;36.180;2023-02-08T09:34:53;102398.63;;;12.97;32.13
54666;BME280;40566;50.006;36.180;2023-02-08T09:39:55;102411.41;;;11.65;34.03
54666;BME280;40566;50.006;36.180;2023-02-08T09:55:20;102408.88;;;9.91;36.69
54666;BME280;40566;50.006;36.180;2023-02-08T10:00:30;102403.53;;;12.47;32.61
54666;BME280;40566;50.006;36.180;2023-02-08T10:05:33;102403.28;;;12.18;32.58
54666;BME280;40566;50.006;36.180;2023-02-08T10:10:43;102402.91;;;9.46;37.00
54666;BME280;40566;50.006;36.180;2023-02-08T10:16:07;102402.41;;;10.13;36.30
54666;BME280;40566;50.006;36.180;2023-02-08T10:37:57;102392.91;;;12.18;32.06
54666;BME280;40566;50.006;36.180;2023-02-08T10:43:18;102395.47;;;13.72;30.98
54666;BME280;40566;50.006;36.180;2023-02-08T10:53:42;102394.63;;;14.11;29.00
54666;BME280;40566;50.006;36.180;2023-02-08T10:58:42;102399.94;;;8.87;36.24
54666;BME280;40566;50.006;36.180;2023-02-08T11:04:04;102387.81;;;8.46;38.27
54666;BME280;40566;50.006;36.180;2023-02-08T11:09:05;102388.00;;;12.50;30.72
54666;BME280;40566;50.006;36.180;2023-02-08T11:14:14;102373.78;;;12.01;30.39
54666;BME280;40566;50.006;36.180;2023-02-08T11:19:30;102381.25;;;5.40;40.50
54666;BME280;40566;50.006;36.180;2023-02-08T11:24:35;102392.63;;;2.24;46.17
54666;BME280;40566;50.006;36.180;2023-02-08T11:29:42;102397.88;;;0.79;48.08
54666;BME280;40566;50.006;36.180;2023-02-08T11:34:43;102401.66;;;-0.33;49.46
54666;BME280;40566;50.006;36.180;2023-02-08T11:39:55;102407.88;;;-0.71;49.37
54666;BME280;40566;50.006;36.180;2023-02-08T11:44:57;102406.28;;;-1.10;49.57
54666;BME280;40566;50.006;36.180;2023-02-08T11:50:01;102407.34;;;-1.47;49.62
54666;BME280;40566;50.006;36.180;2023-02-08T12:00:21;102398.03;;;-2.25;50.30
54666;BME280;40566;50.006;36.180;2023-02-08T12:05:33;102393.31;;;-2.57;50.58
54666;BME280;40566;50.006;36.180;2023-02-08T12:21:08;102406.50;;;-2.74;50.46
54666;BME280;40566;50.006;36.180;2023-02-08T12:26:19;102407.81;;;-2.80;50.58
54666;BME280;40566;50.006;36.180;2023-02-08T12:52:47;102401.03;;;-3.16;51.04
54666;BME280;40566;50.006;36.180;2023-02-08T12:57:52;102397.00;;;-3.26;51.41
54666;BME280;40566;50.006;36.180;2023-02-08T13:03:20;102396.09;;;-3.26;51.33
54666;BME280;40566;50.006;36.180;2023-02-08T13:08:44;102393.56;;;-3.38;51.37
54666;BME280;40566;50.006;36.180;2023-02-08T13:13:54;102396.53;;;-3.44;51.58
54666;BME280;40566;50.006;36.180;2023-02-08T13:24:30;102397.31;;;-3.56;51.81
54666;BME280;40566;50.006;36.180;2023-02-08T13:29:34;102384.22;;;-3.74;52.19
54666;BME280;40566;50.006;36.180;2023-02-08T13:34:45;102392.66;;;-3.86;52.29
54666;BME280;40566;50.006;36.180;2023-02-08T13:39:48;102388.81;;;-3.92;52.50
54666;BME280;40566;50.006;36.180;2023-02-08T13:44:52;102386.59;;;-4.00;52.54
54666;BME280;40566;50.006;36.180;2023-02-08T13:50:08;102384.91;;;-4.11;52.75
54666;BME280;40566;50.006;36.180;2023-02-08T14:06:27;102391.66;;;-4.33;52.90
54666;BME280;40566;50.006;36.180;2023-02-08T14:22:15;102377.47;;;-4.65;53.38
54666;BME280;40566;50.006;36.180;2023-02-08T14:32:24;102373.06;;;-4.90;53.71
54666;BME280;40566;50.006;36.180;2023-02-08T14:37:29;102375.63;;;-5.00;53.93
54666;BME280;40566;50.006;36.180;2023-02-08T14:42:56;102386.97;;;-5.17;54.18
54666;BME280;40566;50.006;36.180;2023-02-08T14:53:53;102375.31;;;-5.37;54.18
54666;BME280;40566;50.006;36.180;2023-02-08T15:04:02;102377.59;;;-5.50;54.23
54666;BME280;40566;50.006;36.180;2023-02-08T15:09:27;102378.13;;;-5.65;54.75
54666;BME280;40566;50.006;36.180;2023-02-08T15:14:30;102367.69;;;-5.80;54.91
54666;BME280;40566;50.006;36.180;2023-02-08T15:19:34;102373.91;;;-5.86;55.02
54666;BME280;40566;50.006;36.180;2023-02-08T15:24:48;102379.44;;;-5.90;54.89
54666;BME280;40566;50.006;36.180;2023-02-08T15:29:49;102378.81;;;-5.88;54.90
54666;BME280;40566;50.006;36.180;2023-02-08T15:34:56;102377.72;;;-6.02;55.09
54666;BME280;40566;50.006;36.180;2023-02-08T15:39:58;102387.94;;;-6.00;55.16
54666;BME280;40566;50.006;36.180;2023-02-08T15:44:59;102381.75;;;-6.04;54.96
54666;BME280;40566;50.006;36.180;2023-02-08T15:50:05;102382.13;;;-6.09;54.95
54666;BME280;40566;50.006;36.180;2023-02-08T15:55:07;102379.84;;;-6.16;55.21
54666;BME280;40566;50.006;36.180;2023-02-08T16:00:16;102383.75;;;-6.30;55.54
54666;BME280;40566;50.006;36.180;2023-02-08T16:05:20;102384.00;;;-6.38;55.72
54666;BME280;40566;50.006;36.180;2023-02-08T16:10:31;102400.22;;;-6.44;55.65
54666;BME280;40566;50.006;36.180;2023-02-08T16:15:42;102401.59;;;-6.48;55.57
54666;BME280;40566;50.006;36.180;2023-02-08T16:20:44;102399.94;;;-6.58;55.78
54666;BME280;40566;50.006;36.180;2023-02-08T16:25:45;102391.88;;;-6.64;55.78
54666;BME280;40566;50.006;36.180;2023-02-08T16:30:49;102400.34;;;-6.63;56.19
54666;BME280;40566;50.006;36.180;2023-02-08T16:35:50;102396.66;;;-6.67;56.12
54666;BME280;40566;50.006;36.180;2023-02-08T16:40:56;102398.41;;;-6.76;56.14
54666;BME280;40566;50.006;36.180;2023-02-08T16:46:19;102407.22;;;-6.81;56.22
54666;BME280;40566;50.006;36.180;2023-02-08T16:51:23;102407.41;;;-6.88;56.18
54666;BME280;40566;50.006;36.180;2023-02-08T16:56:25;102409.81;;;-6.90;56.40
54666;BME280;40566;50.006;36.180;2023-02-08T17:01:25;102419.13;;;-6.89;56.41
54666;BME280;40566;50.006;36.180;2023-02-08T17:06:31;102418.84;;;-6.92;56.45
54666;BME280;40566;50.006;36.180;2023-02-08T17:11:33;102406.75;;;-6.96;56.38
54666;BME280;40566;50.006;36.180;2023-02-08T17:16:36;102396.97;;;-6.93;56.10
54666;BME280;40566;50.006;36.180;2023-02-08T17:21:37;102402.75;;;-6.94;56.51
54666;BME280;40566;50.006;36.180;2023-02-08T17:26:42;102406.41;;;-6.90;56.27
54666;BME280;40566;50.006;36.180;2023-02-08T17:31:43;102400.50;;;-6.91;56.13
54666;BME280;40566;50.006;36.180;2023-02-08T17:36:43;102401.34;;;-7.01;56.33
54666;BME280;40566;50.006;36.180;2023-02-08T17:41:50;102396.81;;;-7.05;56.44
54666;BME280;40566;50.006;36.180;2023-02-08T17:46:50;102394.28;;;-7.05;56.43
54666;BME280;40566;50.006;36.180;2023-02-08T17:51:51;102381.97;;;-7.02;56.14
54666;BME280;40566;50.006;36.180;2023-02-08T17:56:51;102399.56;;;-7.02;56.08
54666;BME280;40566;50.006;36.180;2023-02-08T18:01:55;102391.88;;;-7.03;56.09
54666;BME280;40566;50.006;36.180;2023-02-08T18:06:56;102398.16;;;-7.08;56.38
54666;BME280;40566;50.006;36.180;2023-02-08T18:11:57;102399.19;;;-7.06;56.09
54666;BME280;40566;50.006;36.180;2023-02-08T18:16:57;102401.94;;;-7.03;55.74
54666;BME280;40566;50.006;36.180;2023-02-08T18:21:58;102398.31;;;-7.07;55.78
54666;BME280;40566;50.006;36.180;2023-02-08T18:27:03;102400.53;;;-7.10;55.99
54666;BME280;40566;50.006;36.180;2023-02-08T18:32:03;102394.13;;;-7.16;55.84
54666;BME280;40566;50.006;36.180;2023-02-08T18:37:04;102396.84;;;-7.24;56.15
54666;BME280;40566;50.006;36.180;2023-02-08T18:42:04;102384.47;;;-7.31;56.55
54666;BME280;40566;50.006;36.180;2023-02-08T18:47:06;102381.47;;;-7.27;56.07
54666;BME280;40566;50.006;36.180;2023-02-08T18:52:08;102375.63;;;-7.46;56.68
54666;BME280;40566;50.006;36.180;2023-02-08T18:57:09;102366.66;;;-7.53;56.73
54666;BME280;40566;50.006;36.180;2023-02-08T19:02:16;102376.88;;;-7.41;56.70
54666;BME280;40566;50.006;36.180;2023-02-08T19:07:18;102362.81;;;-7.39;56.62
54666;BME280;40566;50.006;36.180;2023-02-08T19:12:19;102349.72;;;-7.45;56.55
54666;BME280;40566;50.006;36.180;2023-02-08T19:17:20;102354.25;;;-7.41;56.57
54666;BME280;40566;50.006;36.180;2023-02-08T19:22:21;102348.72;;;-7.47;56.75
54666;BME280;40566;50.006;36.180;2023-02-08T19:27:21;102353.72;;;-7.47;56.81
54666;BME280;40566;50.006;36.180;2023-02-08T19:32:23;102348.03;;;-7.55;56.83
54666;BME280;40566;50.006;36.180;2023-02-08T19:37:24;102346.63;;;-7.62;57.02
54666;BME280;40566;50.006;36.180;2023-02-08T19:42:25;102346.22;;;-7.66;57.12
54666;BME280;40566;50.006;36.180;2023-02-08T19:47:25;102345.19;;;-7.68;57.12
54666;BME280;40566;50.006;36.180;2023-02-08T19:52:26;102333.59;;;-7.77;57.45
54666;BME280;40566;50.006;36.180;2023-02-08T19:57:27;102329.66;;;-7.83;57.61
54666;BME280;40566;50.006;36.180;2023-02-08T20:02:27;102343.06;;;-7.74;57.15
54666;BME280;40566;50.006;36.180;2023-02-08T20:07:29;102337.34;;;-7.82;57.47
54666;BME280;40566;50.006;36.180;2023-02-08T20:12:30;102332.66;;;-7.87;57.92
54666;BME280;40566;50.006;36.180;2023-02-08T20:17:30;102329.94;;;-7.80;57.38
54666;BME280;40566;50.006;36.180;2023-02-08T20:22:31;102336.88;;;-7.78;57.25
54666;BME280;40566;50.006;36.180;2023-02-08T20:27:31;102336.72;;;-7.79;57.08
54666;BME280;40566;50.006;36.180;2023-02-08T20:32:32;102334.22;;;-7.98;57.36
54666;BME280;40566;50.006;36.180;2023-02-08T20:37:32;102343.31;;;-8.09;57.76
54666;BME280;40566;50.006;36.180;2023-02-08T20:42:33;102343.09;;;-8.02;57.28
54666;BME280;40566;50.006;36.180;2023-02-08T20:47:37;102341.63;;;-8.00;57.30
54666;BME280;40566;50.006;36.180;2023-02-08T20:52:38;102337.91;;;-8.13;57.59
54666;BME280;40566;50.006;36.180;2023-02-08T20:57:38;102337.47;;;-8.18;57.73
54666;BME280;40566;50.006;36.180;2023-02-08T21:02:39;102339.97;;;-8.18;57.75
54666;BME280;40566;50.006;36.180;2023-02-08T21:07:41;102345.00;;;-8.18;57.69
54666;BME280;40566;50.006;36.180;2023-02-08T21:12:42;102343.25;;;-8.19;57.36
54666;BME280;40566;50.006;36.180;2023-02-08T21:17:42;102339.44;;;-8.24;57.44
54666;BME280;40566;50.006;36.180;2023-02-08T21:22:43;102321.31;;;-8.30;57.61
54666;BME280;40566;50.006;36.180;2023-02-08T21:27:44;102322.31;;;-8.28;57.65
54666;BME280;40566;50.006;36.180;2023-02-08T21:32:46;102314.25;;;-8.34;57.75
54666;BME280;40566;50.006;36.180;2023-02-08T21:37:47;102305.69;;;-8.37;57.69
54666;BME280;40566;50.006;36.180;2023-02-08T21:42:48;102319.41;;;-8.33;57.61
54666;BME280;40566;50.006;36.180;2023-02-08T21:47:48;102303.66;;;-8.41;57.41
54666;BME280;40566;50.006;36.180;2023-02-08T21:52:49;102310.94;;;-8.44;57.57
54666;BME280;40566;50.006;36.180;2023-02-08T21:58:08;102307.72;;;-8.51;57.58
54666;BME280;40566;50.006;36.180;2023-02-08T22:03:08;102310.25;;;-8.51;57.65
54666;BME280;40566;50.006;36.180;2023-02-08T22:08:11;102307.47;;;-8.54;57.72
54666;BME280;40566;50.006;36.180;2023-02-08T22:13:12;102295.06;;;-8.53;57.62
54666;BME280;40566;50.006;36.180;2023-02-08T22:18:12;102286.25;;;-8.58;57.49
54666;BME280;40566;50.006;36.180;2023-02-08T22:23:13;102269.47;;;-8.68;57.79
54666;BME280;40566;50.006;36.180;2023-02-08T22:28:14;102275.47;;;-8.85;58.22
54666;BME280;40566;50.006;36.180;2023-02-08T22:33:14;102271.84;;;-8.97;58.42
54666;BME280;40566;50.006;36.180;2023-02-08T22:38:15;102259.38;;;-8.87;58.26
54666;BME280;40566;50.006;36.180;2023-02-08T22:43:15;102264.75;;;-8.92;58.52
54666;BME280;40566;50.006;36.180;2023-02-08T22:48:16;102271.09;;;-8.96;58.44
54666;BME280;40566;50.006;36.180;2023-02-08T22:53:17;102273.09;;;-8.83;57.86
54666;BME280;40566;50.006;36.180;2023-02-08T22:58:18;102280.16;;;-8.79;57.55
54666;BME280;40566;50.006;36.180;2023-02-08T23:03:18;102284.75;;;-8.84;57.99
54666;BME280;40566;50.006;36.180;2023-02-08T23:08:20;102276.69;;;-8.90;58.05
54666;BME280;40566;50.006;36.180;2023-02-08T23:13:21;102289.94;;;-8.91;57.91
54666;BME280;40566;50.006;36.180;2023-02-08T23:18:22;102292.66;;;-8.98;57.90
54666;BME280;40566;50.006;36.180;2023-02-08T23:23:23;102272.16;;;-9.03;57.82
54666;BME280;40566;50.006;36.180;2023-02-08T23:28:24;102267.03;;;-9.04;57.27
54666;BME280;40566;50.006;36.180;2023-02-08T23:33:24;102267.66;;;-9.15;57.84
54666;BME280;40566;50.006;36.180;2023-02-08T23:38:25;102256.59;;;-9.18;57.61
54666;BME280;40566;50.006;36.180;2023-02-08T23:43:27;102251.59;;;-9.18;57.58
54666;BME280;40566;50.006;36.180;2023-02-08T23:48:27;102245.72;;;-9.27;57.69
54666;BME280;40566;50.006;36.180;2023-02-08T23:53:28;102237.97;;;-9.39;57.67
54666;BME280;40566;50.006;36.180;2023-02-08T23:58:31;102236.31;;;-9.38;57.56
